Time;durP1;ratioP1;P1;durP2;ratioP2;P2;SDS_P1;SDS_P2;PMS_P1;PMS_P2;Temp;Humidity;BMP_temperature;BMP_pressure;BME280_temperature;BME280_humidity;BME280_pressure;Samples;Min_cycle;Max_cycle;Signal;HPM_P1;HPM_P2
2022/09/22 00:02:09;;;;;;;3.13;2.42;;;;;;;;;;5082295;28;20199;-69
2022/09/22 00:04:36;;;;;;;3.05;2.25;;;;;;;;;;5081592;28;20209;-69
2022/09/22 00:07:02;;;;;;;3.92;2.30;;;;;;;;;;5082244;28;20200;-69
2022/09/22 00:09:28;;;;;;;2.67;2.33;;;;;;;;;;5082561;28;20203;-69
2022/09/22 00:11:56;;;;;;;2.70;2.47;;;;;;;;;;5082457;28;20216;-69
2022/09/22 00:14:23;;;;;;;3.80;2.47;;;;;;;;;;5082199;28;20203;-70
2022/09/22 00:16:50;;;;;;;3.00;2.67;;;;;;;;;;5082395;28;20203;-69
2022/09/22 00:19:18;;;;;;;2.70;2.60;;;;;;;;;;5082229;28;20432;-70
2022/09/22 00:21:44;;;;;;;2.95;2.85;;;;;;;;;;5082548;28;20377;-70
2022/09/22 00:24:11;;;;;;;3.58;3.03;;;;;;;;;;5082272;28;20235;-70
2022/09/22 00:26:37;;;;;;;3.25;3.05;;;;;;;;;;5082202;28;20205;-70
2022/09/22 00:29:08;;;;;;;2.92;2.80;;;;;;;;;;5082176;28;20392;-68
2022/09/22 00:31:34;;;;;;;3.10;2.90;;;;;;;;;;5081962;28;20224;-70
2022/09/22 00:34:00;;;;;;;3.95;3.08;;;;;;;;;;5081948;28;20292;-70
2022/09/22 00:36:27;;;;;;;3.10;3.00;;;;;;;;;;5081907;28;20380;-69
2022/09/22 00:38:55;;;;;;;3.10;2.90;;;;;;;;;;5082167;28;20197;-70
2022/09/22 00:41:23;;;;;;;2.90;2.72;;;;;;;;;;5081900;28;20193;-70
2022/09/22 00:43:50;;;;;;;2.60;2.50;;;;;;;;;;5081820;28;20362;-70
2022/09/22 00:46:20;;;;;;;2.63;2.50;;;;;;;;;;5082013;28;20211;-70
2022/09/22 00:48:49;;;;;;;3.25;3.00;;;;;;;;;;5081823;28;20196;-70
2022/09/22 00:51:16;;;;;;;4.60;2.55;;;;;;;;;;5082104;28;20247;-69
2022/09/22 00:53:42;;;;;;;2.90;2.70;;;;;;;;;;5081761;28;20204;-69
2022/09/22 00:56:10;;;;;;;4.63;3.13;;;;;;;;;;5082046;28;20200;-70
2022/09/22 00:58:37;;;;;;;3.50;3.30;;;;;;;;;;5081765;28;20197;-70
2022/09/22 01:01:06;;;;;;;3.40;3.20;;;;;;;;;;5081888;28;20201;-70
2022/09/22 01:03:34;;;;;;;4.68;3.35;;;;;;;;;;5081365;28;20530;-69
2022/09/22 01:06:01;;;;;;;3.45;3.25;;;;;;;;;;5081613;28;20224;-69
2022/09/22 01:08:28;;;;;;;4.07;3.78;;;;;;;;;;5081844;28;20197;-69
2022/09/22 01:10:54;;;;;;;3.55;3.35;;;;;;;;;;5081987;28;20216;-69
2022/09/22 01:13:26;;;;;;;3.60;3.40;;;;;;;;;;5081492;28;20234;-69
2022/09/22 01:16:13;;;;;;;3.08;2.88;;;;;;;;;;5084401;28;20196;-69
2022/09/22 01:18:46;;;;;;;3.30;3.15;;;;;;;;;;5080425;28;20492;-69
2022/09/22 01:21:21;;;;;;;4.70;3.50;;;;;;;;;;5085578;28;20207;-69
2022/09/22 01:24:06;;;;;;;3.13;2.92;;;;;;;;;;5085394;28;20196;-69
2022/09/22 01:26:42;;;;;;;3.03;2.92;;;;;;;;;;5085292;28;20416;-69
2022/09/22 01:29:26;;;;;;;6.25;3.42;;;;;;;;;;5085439;28;20196;-69
2022/09/22 01:31:58;;;;;;;3.65;3.42;;;;;;;;;;5085367;28;20220;-69
2022/09/22 01:34:27;;;;;;;3.78;3.58;;;;;;;;;;5085029;28;20197;-69
2022/09/22 01:36:57;;;;;;;3.25;3.03;;;;;;;;;;5085092;28;20196;-69
2022/09/22 01:39:26;;;;;;;3.65;3.38;;;;;;;;;;5085389;28;20203;-70
2022/09/22 01:41:56;;;;;;;3.25;3.05;;;;;;;;;;5085140;28;20352;-70
2022/09/22 01:44:25;;;;;;;3.38;3.15;;;;;;;;;;5084873;28;20226;-70
2022/09/22 01:46:55;;;;;;;3.58;3.38;;;;;;;;;;5084996;28;20200;-70
2022/09/22 01:49:24;;;;;;;4.28;3.10;;;;;;;;;;5084287;28;20428;-70
2022/09/22 01:51:51;;;;;;;5.32;3.50;;;;;;;;;;5084937;28;20212;-69
2022/09/22 01:54:19;;;;;;;4.03;3.20;;;;;;;;;;5084850;28;20203;-68
2022/09/22 01:56:48;;;;;;;3.20;3.00;;;;;;;;;;5084692;28;20241;-68
2022/09/22 01:59:16;;;;;;;3.20;3.00;;;;;;;;;;5085099;28;20489;-69
2022/09/22 02:01:45;;;;;;;5.10;2.88;;;;;;;;;;5085035;28;20197;-69
2022/09/22 02:04:16;;;;;;;2.90;2.60;;;;;;;;;;5084636;28;20396;-69
2022/09/22 02:06:43;;;;;;;3.03;2.90;;;;;;;;;;5084621;28;20216;-69
2022/09/22 02:09:14;;;;;;;3.30;3.10;;;;;;;;;;5084770;28;20203;-69
2022/09/22 02:11:40;;;;;;;2.65;2.53;;;;;;;;;;5084490;28;20216;-69
2022/09/22 02:14:07;;;;;;;2.65;2.55;;;;;;;;;;5084756;28;20254;-69
2022/09/22 02:16:33;;;;;;;2.85;2.70;;;;;;;;;;5084693;28;20196;-70
2022/09/22 02:19:02;;;;;;;3.58;2.88;;;;;;;;;;5084464;28;20204;-69
2022/09/22 02:21:29;;;;;;;2.90;2.70;;;;;;;;;;5084459;28;20437;-70
2022/09/22 02:23:56;;;;;;;3.08;2.53;;;;;;;;;;5084089;28;20200;-69
2022/09/22 02:26:24;;;;;;;3.80;3.53;;;;;;;;;;5083393;28;20212;-69
2022/09/22 02:28:51;;;;;;;3.65;3.30;;;;;;;;;;5084354;28;20196;-69
2022/09/22 02:31:18;;;;;;;3.10;3.00;;;;;;;;;;5084298;28;20232;-68
2022/09/22 02:33:44;;;;;;;3.90;3.40;;;;;;;;;;5084110;28;20204;-68
2022/09/22 02:36:17;;;;;;;4.03;3.35;;;;;;;;;;5084040;28;20219;-68
2022/09/22 02:38:49;;;;;;;3.60;3.30;;;;;;;;;;5084041;28;20185;-68
2022/09/22 02:41:19;;;;;;;3.95;3.58;;;;;;;;;;5084506;28;20424;-68
2022/09/22 02:43:49;;;;;;;4.70;3.40;;;;;;;;;;5084029;28;20264;-68
2022/09/22 02:46:19;;;;;;;3.65;3.45;;;;;;;;;;5084267;28;20201;-68
2022/09/22 02:48:46;;;;;;;7.00;3.45;;;;;;;;;;5083920;28;20204;-68
2022/09/22 02:51:13;;;;;;;4.82;3.65;;;;;;;;;;5083795;28;20330;-69
2022/09/22 02:53:39;;;;;;;6.28;3.30;;;;;;;;;;5083890;28;20239;-69
2022/09/22 02:56:07;;;;;;;3.72;3.53;;;;;;;;;;5083676;28;20196;-69
2022/09/22 02:58:33;;;;;;;3.88;3.58;;;;;;;;;;5083838;28;20249;-69
2022/09/22 03:01:00;;;;;;;3.60;3.40;;;;;;;;;;5083648;28;20203;-69
2022/09/22 03:03:26;;;;;;;4.00;3.70;;;;;;;;;;5083231;28;20238;-69
2022/09/22 03:05:52;;;;;;;4.95;3.53;;;;;;;;;;5083703;28;20382;-69
2022/09/22 03:08:18;;;;;;;6.95;3.88;;;;;;;;;;5083752;28;20200;-69
2022/09/22 03:10:45;;;;;;;4.13;3.83;;;;;;;;;;5083747;28;20214;-69
2022/09/22 03:13:12;;;;;;;4.00;3.50;;;;;;;;;;5083110;28;20220;-69
2022/09/22 03:15:39;;;;;;;4.25;3.80;;;;;;;;;;5083368;28;20528;-69
2022/09/22 03:18:05;;;;;;;3.60;3.40;;;;;;;;;;5083117;28;20258;-69
2022/09/22 03:20:31;;;;;;;4.30;3.95;;;;;;;;;;5083422;28;20272;-69
2022/09/22 03:22:58;;;;;;;3.85;3.58;;;;;;;;;;5083028;28;20192;-69
2022/09/22 03:25:24;;;;;;;4.10;3.70;;;;;;;;;;5083277;28;20218;-69
2022/09/22 03:27:50;;;;;;;4.22;3.63;;;;;;;;;;5083051;28;20212;-69
2022/09/22 03:30:20;;;;;;;4.40;3.53;;;;;;;;;;5083156;28;20577;-69
2022/09/22 03:32:47;;;;;;;3.75;3.45;;;;;;;;;;5082653;28;20219;-69
2022/09/22 03:35:13;;;;;;;3.72;3.42;;;;;;;;;;5083196;28;20197;-70
2022/09/22 03:37:39;;;;;;;3.97;3.67;;;;;;;;;;5082872;28;20201;-69
2022/09/22 03:40:06;;;;;;;3.50;3.22;;;;;;;;;;5083007;28;20311;-69
2022/09/22 03:42:33;;;;;;;3.78;3.42;;;;;;;;;;5082619;28;20192;-69
2022/09/22 03:45:00;;;;;;;3.90;3.40;;;;;;;;;;5082870;28;20365;-70
2022/09/22 03:47:28;;;;;;;3.28;3.08;;;;;;;;;;5082659;28;20388;-69
2022/09/22 03:49:54;;;;;;;3.88;3.58;;;;;;;;;;5082886;28;20188;-69
2022/09/22 03:52:20;;;;;;;4.18;3.85;;;;;;;;;;5082542;28;20223;-70
2022/09/22 03:54:47;;;;;;;4.35;3.42;;;;;;;;;;5082638;28;20222;-69
2022/09/22 03:57:13;;;;;;;3.63;3.42;;;;;;;;;;5082521;28;20205;-70
2022/09/22 03:59:39;;;;;;;4.38;4.05;;;;;;;;;;5082410;28;20226;-70
2022/09/22 04:02:06;;;;;;;3.53;3.33;;;;;;;;;;5082488;28;20192;-70
2022/09/22 04:04:33;;;;;;;4.53;3.45;;;;;;;;;;5082477;28;20235;-69
2022/09/22 04:07:00;;;;;;;4.57;3.70;;;;;;;;;;5082849;28;20196;-69
2022/09/22 04:09:26;;;;;;;3.80;3.50;;;;;;;;;;5082354;28;20263;-69
2022/09/22 04:11:52;;;;;;;3.72;3.42;;;;;;;;;;5082153;28;20531;-70
2022/09/22 04:14:18;;;;;;;4.18;3.78;;;;;;;;;;5081926;28;20405;-70
2022/09/22 04:16:45;;;;;;;3.50;3.38;;;;;;;;;;5082703;28;20200;-70
2022/09/22 04:19:11;;;;;;;4.10;3.80;;;;;;;;;;5082081;28;20196;-70
2022/09/22 04:21:39;;;;;;;3.85;3.47;;;;;;;;;;5082267;28;20196;-69
2022/09/22 04:24:10;;;;;;;3.92;3.70;;;;;;;;;;5081770;28;20230;-70
2022/09/22 04:26:36;;;;;;;4.28;3.88;;;;;;;;;;5082040;28;20204;-70
2022/09/22 04:29:02;;;;;;;5.57;3.35;;;;;;;;;;5081915;28;20549;-69
2022/09/22 04:31:29;;;;;;;4.50;3.65;;;;;;;;;;5082306;28;20311;-70
2022/09/22 04:33:55;;;;;;;4.85;3.97;;;;;;;;;;5082206;28;20223;-69
2022/09/22 04:36:21;;;;;;;7.45;4.15;;;;;;;;;;5082022;28;20196;-70
2022/09/22 04:38:49;;;;;;;3.60;3.30;;;;;;;;;;5082211;28;20200;-70
2022/09/22 04:41:15;;;;;;;3.65;3.40;;;;;;;;;;5081954;28;20204;-70
2022/09/22 04:43:42;;;;;;;5.25;4.10;;;;;;;;;;5081910;28;20199;-70
2022/09/22 04:46:08;;;;;;;5.85;3.88;;;;;;;;;;5082236;28;20203;-69
2022/09/22 04:48:34;;;;;;;4.10;3.80;;;;;;;;;;5082010;28;20527;-70
2022/09/22 04:51:01;;;;;;;5.35;4.35;;;;;;;;;;5087940;28;20401;-70
2022/09/22 04:53:27;;;;;;;4.05;3.75;;;;;;;;;;5088325;28;20219;-70
2022/09/22 04:55:55;;;;;;;4.65;3.80;;;;;;;;;;5088517;28;20204;-70
2022/09/22 04:58:21;;;;;;;5.18;4.10;;;;;;;;;;5088642;28;20361;-70
2022/09/22 05:00:48;;;;;;;4.13;3.75;;;;;;;;;;5088591;28;20414;-70
2022/09/22 05:03:14;;;;;;;5.40;4.20;;;;;;;;;;5088194;28;20192;-70
2022/09/22 05:05:40;;;;;;;4.30;3.90;;;;;;;;;;5088389;28;20219;-70
2022/09/22 05:08:07;;;;;;;3.95;3.65;;;;;;;;;;5088419;28;20391;-70
2022/09/22 05:10:36;;;;;;;7.35;3.55;;;;;;;;;;5088425;28;20203;-72
2022/09/22 05:13:04;;;;;;;4.13;3.80;;;;;;;;;;5087989;28;20220;-70
2022/09/22 05:15:31;;;;;;;3.67;3.38;;;;;;;;;;5088454;28;20196;-70
2022/09/22 05:17:58;;;;;;;3.78;3.50;;;;;;;;;;5088309;28;20196;-70
2022/09/22 05:20:24;;;;;;;5.88;3.78;;;;;;;;;;5088318;28;20401;-70
2022/09/22 05:22:52;;;;;;;4.03;3.38;;;;;;;;;;5088110;28;20262;-70
2022/09/22 05:25:19;;;;;;;4.43;4.00;;;;;;;;;;5083627;28;20205;-63
2022/09/22 05:27:52;;;;;;;6.40;4.40;;;;;;;;;;5069589;28;20293;-63
2022/09/22 05:30:20;;;;;;;5.63;3.70;;;;;;;;;;5070049;28;20231;-63
2022/09/22 05:32:47;;;;;;;3.95;3.75;;;;;;;;;;5080912;28;20224;-62
2022/09/22 05:35:16;;;;;;;6.47;3.90;;;;;;;;;;5082057;28;20512;-63
2022/09/22 05:37:44;;;;;;;4.35;4.00;;;;;;;;;;5072347;28;20279;-63
2022/09/22 05:40:10;;;;;;;4.13;3.80;;;;;;;;;;5080637;28;20269;-62
2022/09/22 05:42:39;;;;;;;5.05;3.70;;;;;;;;;;5080052;28;20404;-63
2022/09/22 05:45:06;;;;;;;4.30;3.90;;;;;;;;;;5080717;28;20242;-61
2022/09/22 05:47:34;;;;;;;3.80;3.60;;;;;;;;;;5079992;28;20204;-61
2022/09/22 05:50:00;;;;;;;6.32;4.50;;;;;;;;;;5080675;28;20344;-59
2022/09/22 05:52:27;;;;;;;6.53;4.40;;;;;;;;;;5079941;28;20590;-61
2022/09/22 05:54:53;;;;;;;4.47;4.03;;;;;;;;;;5080373;28;20212;-60
2022/09/22 05:57:20;;;;;;;5.78;4.18;;;;;;;;;;5080086;28;20220;-62
2022/09/22 05:59:46;;;;;;;5.53;3.83;;;;;;;;;;5080834;28;20219;-61
2022/09/22 06:02:13;;;;;;;5.57;3.65;;;;;;;;;;5076355;28;20250;-61
2022/09/22 06:04:40;;;;;;;5.22;4.78;;;;;;;;;;5077036;28;20656;-61
2022/09/22 06:07:06;;;;;;;8.25;4.40;;;;;;;;;;5076807;28;20218;-61
2022/09/22 06:09:33;;;;;;;7.32;4.47;;;;;;;;;;5077138;28;20291;-62
2022/09/22 06:11:59;;;;;;;5.88;4.38;;;;;;;;;;5076832;28;20231;-62
2022/09/22 06:14:26;;;;;;;5.30;4.30;;;;;;;;;;5077711;28;20230;-62
2022/09/22 06:16:52;;;;;;;5.57;4.60;;;;;;;;;;5077991;28;20326;-62
2022/09/22 06:19:18;;;;;;;5.15;4.65;;;;;;;;;;5078185;28;20223;-62
2022/09/22 06:21:46;;;;;;;5.20;4.38;;;;;;;;;;5073285;28;20209;-58
2022/09/22 06:24:12;;;;;;;7.75;5.20;;;;;;;;;;5076586;28;20407;-59
2022/09/22 06:26:39;;;;;;;5.13;4.55;;;;;;;;;;5076012;28;20905;-58
2022/09/22 06:29:05;;;;;;;6.90;5.03;;;;;;;;;;5076457;28;20235;-58
2022/09/22 06:31:31;;;;;;;9.55;5.05;;;;;;;;;;5076394;28;20217;-59
2022/09/22 06:33:57;;;;;;;6.78;5.30;;;;;;;;;;5076355;28;20254;-59
2022/09/22 06:36:30;;;;;;;5.95;4.72;;;;;;;;;;5076273;28;20214;-58
2022/09/22 06:38:58;;;;;;;12.95;6.13;;;;;;;;;;5077244;28;20254;-63
2022/09/22 06:41:26;;;;;;;12.13;5.93;;;;;;;;;;5078000;28;20212;-62
2022/09/22 06:43:54;;;;;;;15.32;6.32;;;;;;;;;;5076425;28;20274;-61
2022/09/22 06:46:22;;;;;;;14.30;5.72;;;;;;;;;;5076246;28;20283;-62
2022/09/22 06:48:49;;;;;;;15.10;5.20;;;;;;;;;;5076363;28;20511;-62
2022/09/22 06:51:16;;;;;;;7.95;5.88;;;;;;;;;;5072460;28;20212;-62
2022/09/22 06:53:43;;;;;;;11.00;5.47;;;;;;;;;;5075501;28;20235;-62
2022/09/22 06:56:10;;;;;;;8.30;5.00;;;;;;;;;;5075798;28;20302;-60
2022/09/22 06:58:37;;;;;;;7.03;5.20;;;;;;;;;;5075126;28;20220;-61
2022/09/22 07:01:05;;;;;;;9.65;5.15;;;;;;;;;;5075093;28;20227;-62
2022/09/22 07:03:32;;;;;;;7.07;4.72;;;;;;;;;;5074630;28;20208;-62
2022/09/22 07:05:59;;;;;;;5.10;4.60;;;;;;;;;;5075142;28;20270;-62
2022/09/22 07:08:26;;;;;;;5.47;4.88;;;;;;;;;;5074650;28;20246;-62
2022/09/22 07:10:53;;;;;;;5.43;5.03;;;;;;;;;;5075276;28;20499;-62
2022/09/22 07:13:21;;;;;;;7.97;4.88;;;;;;;;;;5075009;28;20240;-62
2022/09/22 07:15:47;;;;;;;6.75;5.45;;;;;;;;;;5075112;28;20212;-62
2022/09/22 07:18:14;;;;;;;6.47;4.72;;;;;;;;;;5074918;28;20219;-61
2022/09/22 07:20:41;;;;;;;8.02;5.28;;;;;;;;;;5075120;28;20208;-63
2022/09/22 07:23:20;;;;;;;9.77;5.80;;;;;;;;;;5075180;28;20462;-63
2022/09/22 07:25:51;;;;;;;6.28;5.68;;;;;;;;;;5076149;28;21124;-63
2022/09/22 07:28:17;;;;;;;6.82;5.20;;;;;;;;;;5075945;28;20213;-62
2022/09/22 07:30:46;;;;;;;11.85;5.78;;;;;;;;;;5076015;28;20212;-62
2022/09/22 07:33:12;;;;;;;6.13;5.38;;;;;;;;;;5075187;28;20469;-63
2022/09/22 07:35:39;;;;;;;8.82;5.07;;;;;;;;;;5075223;28;20258;-63
2022/09/22 07:38:06;;;;;;;6.63;5.10;;;;;;;;;;5075007;28;20279;-63
2022/09/22 07:40:32;;;;;;;6.90;5.43;;;;;;;;;;5074982;28;20459;-63
2022/09/22 07:46:02;;;;;;;5.68;5.18;;;;;;;;;;5063305;28;20229;-62
2022/09/22 07:48:41;;;;;;;7.00;4.57;;;;;;;;;;5074574;28;20215;-64
2022/09/22 07:51:09;;;;;;;8.52;5.60;;;;;;;;;;5072898;28;20212;-63
2022/09/22 07:53:36;;;;;;;6.85;5.50;;;;;;;;;;5074495;28;20669;-63
2022/09/22 07:56:03;;;;;;;8.32;5.90;;;;;;;;;;5074652;28;20239;-63
2022/09/22 07:58:29;;;;;;;6.47;5.50;;;;;;;;;;5074561;28;20212;-63
2022/09/22 08:00:56;;;;;;;9.63;5.45;;;;;;;;;;5074410;28;20212;-63
2022/09/22 08:03:24;;;;;;;7.90;5.93;;;;;;;;;;5074668;28;20527;-64
2022/09/22 08:05:52;;;;;;;6.03;5.45;;;;;;;;;;5074468;28;20228;-63
2022/09/22 08:08:18;;;;;;;8.80;5.75;;;;;;;;;;5074885;28;20216;-63
2022/09/22 08:10:45;;;;;;;10.30;5.28;;;;;;;;;;5073989;28;20223;-63
2022/09/22 08:13:12;;;;;;;5.82;5.22;;;;;;;;;;5073720;28;20254;-63
2022/09/22 08:15:40;;;;;;;6.38;5.28;;;;;;;;;;5073956;28;20206;-63
2022/09/22 08:18:07;;;;;;;8.10;5.40;;;;;;;;;;5074592;28;20253;-62
2022/09/22 08:20:34;;;;;;;7.50;5.13;;;;;;;;;;5074629;28;20212;-64
2022/09/22 08:23:04;;;;;;;8.30;5.47;;;;;;;;;;5074609;28;20216;-66
2022/09/22 08:25:30;;;;;;;6.63;5.93;;;;;;;;;;5075442;28;20212;-64
2022/09/22 08:27:56;;;;;;;8.02;5.40;;;;;;;;;;5074462;28;20266;-64
2022/09/22 08:30:23;;;;;;;7.10;5.20;;;;;;;;;;5073849;28;20212;-64
2022/09/22 08:32:50;;;;;;;5.07;4.57;;;;;;;;;;5074705;28;20254;-63
2022/09/22 08:35:17;;;;;;;5.10;4.63;;;;;;;;;;5074344;28;20216;-64
2022/09/22 08:37:44;;;;;;;6.68;5.20;;;;;;;;;;5074125;28;20306;-64
2022/09/22 08:40:15;;;;;;;10.57;5.00;;;;;;;;;;5074477;28;20212;-64
2022/09/22 08:42:44;;;;;;;6.15;4.70;;;;;;;;;;5074277;28;20213;-63
2022/09/22 08:45:20;;;;;;;7.13;4.93;;;;;;;;;;5074778;28;20528;-64
2022/09/22 08:53:22;;;;;;;5.97;3.95;;;;;;;;;;5070904;28;20269;-62
2022/09/22 08:55:52;;;;;;;6.13;4.00;;;;;;;;;;5070656;28;20212;-63
2022/09/22 08:58:33;;;;;;;8.48;4.20;;;;;;;;;;5074630;28;20258;-63
2022/09/22 09:01:04;;;;;;;4.28;3.63;;;;;;;;;;5074252;28;20239;-63
2022/09/22 09:03:33;;;;;;;5.57;3.60;;;;;;;;;;5074186;28;20212;-64
2022/09/22 09:06:04;;;;;;;6.30;3.55;;;;;;;;;;5074748;28;20621;-64
2022/09/22 09:08:45;;;;;;;3.33;3.03;;;;;;;;;;5074040;28;20256;-63
2022/09/22 09:11:17;;;;;;;7.38;3.10;;;;;;;;;;5074352;28;20212;-63
2022/09/22 09:13:53;;;;;;;3.63;3.30;;;;;;;;;;5073881;28;20238;-63
2022/09/22 09:16:29;;;;;;;4.63;3.35;;;;;;;;;;5073972;28;20215;-63
2022/09/22 09:18:59;;;;;;;5.30;3.38;;;;;;;;;;5071169;28;20208;-64
2022/09/22 09:21:26;;;;;;;4.85;3.20;;;;;;;;;;5074186;28;20212;-64
2022/09/22 09:23:56;;;;;;;7.15;2.75;;;;;;;;;;5074580;28;20209;-64
2022/09/22 09:26:23;;;;;;;2.85;2.42;;;;;;;;;;5074893;28;20718;-64
2022/09/22 09:28:52;;;;;;;2.17;1.63;;;;;;;;;;5074317;28;20436;-64
2022/09/22 09:31:21;;;;;;;1.30;1.20;;;;;;;;;;5074169;28;20581;-63
2022/09/22 09:33:57;;;;;;;1.42;1.33;;;;;;;;;;5074127;28;20251;-64
2022/09/22 09:36:28;;;;;;;1.25;1.15;;;;;;;;;;5075603;28;20414;-63
2022/09/22 09:38:56;;;;;;;2.63;1.17;;;;;;;;;;5077944;28;20213;-62
2022/09/22 09:41:24;;;;;;;1.05;1.02;;;;;;;;;;5078513;28;20208;-62
2022/09/22 09:43:53;;;;;;;1.30;1.30;;;;;;;;;;5077418;28;20551;-63
2022/09/22 09:46:25;;;;;;;3.20;0.93;;;;;;;;;;5077977;28;20212;-63
2022/09/22 09:49:01;;;;;;;1.70;0.80;;;;;;;;;;5074330;28;20208;-63
2022/09/22 09:51:28;;;;;;;0.82;0.82;;;;;;;;;;5077011;28;20212;-64
2022/09/22 09:53:57;;;;;;;0.80;0.80;;;;;;;;;;5077485;28;20239;-64
2022/09/22 09:56:24;;;;;;;1.55;0.65;;;;;;;;;;5077989;28;20216;-65
2022/09/22 10:01:42;;;;;;;0.93;0.93;;;;;;;;;;5077047;28;20563;-64
2022/09/22 10:04:17;;;;;;;0.60;0.60;;;;;;;;;;5076981;28;20239;-64
2022/09/22 10:06:44;;;;;;;1.52;0.80;;;;;;;;;;5076598;28;20433;-64
2022/09/22 10:09:22;;;;;;;1.95;0.73;;;;;;;;;;5077417;28;20216;-63
2022/09/22 10:11:56;;;;;;;1.85;0.70;;;;;;;;;;5077986;28;20212;-63
2022/09/22 10:14:26;;;;;;;1.05;0.80;;;;;;;;;;5073424;28;20232;-64
2022/09/22 10:16:52;;;;;;;0.80;0.80;;;;;;;;;;5076479;28;20453;-64
2022/09/22 10:19:21;;;;;;;2.80;0.90;;;;;;;;;;5077062;28;20254;-64
2022/09/22 10:21:47;;;;;;;1.15;0.80;;;;;;;;;;5077650;28;20291;-62
2022/09/22 10:24:30;;;;;;;1.08;0.65;;;;;;;;;;5076828;28;20208;-63
2022/09/22 10:26:56;;;;;;;0.90;0.90;;;;;;;;;;5076339;28;20232;-63
2022/09/22 10:29:24;;;;;;;0.60;0.60;;;;;;;;;;5076107;28;20281;-62
2022/09/22 10:32:01;;;;;;;0.85;0.85;;;;;;;;;;5076203;28;20212;-62
2022/09/22 10:34:30;;;;;;;3.45;0.88;;;;;;;;;;5075781;28;20235;-63
2022/09/22 10:36:57;;;;;;;1.27;1.20;;;;;;;;;;5071913;28;20520;-64
2022/09/22 10:39:27;;;;;;;0.80;0.80;;;;;;;;;;5076653;28;20212;-63
2022/09/22 10:41:55;;;;;;;1.27;0.75;;;;;;;;;;5076520;28;20208;-63
2022/09/22 10:44:25;;;;;;;0.80;0.80;;;;;;;;;;5076033;28;20535;-63
2022/09/22 10:46:57;;;;;;;2.28;0.82;;;;;;;;;;5076004;28;20212;-63
2022/09/22 10:49:32;;;;;;;0.70;0.70;;;;;;;;;;5076520;28;20212;-63
2022/09/22 10:52:04;;;;;;;0.65;0.60;;;;;;;;;;5076158;28;20215;-62
2022/09/22 10:54:41;;;;;;;1.33;0.60;;;;;;;;;;5076129;28;20285;-63
2022/09/22 10:57:14;;;;;;;1.05;0.60;;;;;;;;;;5076811;28;20210;-63
2022/09/22 10:59:48;;;;;;;1.40;0.63;;;;;;;;;;5079208;28;20204;-63
2022/09/22 11:02:25;;;;;;;0.55;0.55;;;;;;;;;;5078492;28;20393;-64
2022/09/22 11:04:56;;;;;;;2.03;1.50;;;;;;;;;;5078430;28;20231;-64
2022/09/22 11:13:16;;;;;;;6.97;5.47;;;;;;;;;;5077353;28;20230;-64
2022/09/22 11:15:59;;;;;;;1.70;1.50;;;;;;;;;;5078329;28;20235;-64
2022/09/22 11:18:36;;;;;;;3.13;0.70;;;;;;;;;;5075765;28;20212;-64
2022/09/22 11:21:07;;;;;;;4.38;3.08;;;;;;;;;;5078948;28;20581;-64
2022/09/22 11:23:50;;;;;;;0.93;0.90;;;;;;;;;;5077457;28;20504;-63
2022/09/22 11:26:36;;;;;;;0.98;0.95;;;;;;;;;;5078831;28;20220;-64
2022/09/22 11:29:19;;;;;;;3.75;3.45;;;;;;;;;;5078342;28;20208;-64
2022/09/22 11:31:48;;;;;;;2.42;1.38;;;;;;;;;;5078527;28;20226;-64
2022/09/22 11:34:34;;;;;;;1.27;1.27;;;;;;;;;;5077097;28;20235;-64
2022/09/22 11:37:24;;;;;;;1.08;0.50;;;;;;;;;;5077976;28;20208;-64
2022/09/22 11:39:55;;;;;;;3.33;0.60;;;;;;;;;;5078439;28;20215;-63
2022/09/22 11:42:24;;;;;;;1.20;0.40;;;;;;;;;;5078104;28;20212;-63
2022/09/22 11:45:01;;;;;;;1.48;0.60;;;;;;;;;;5078398;28;20234;-63
2022/09/22 11:47:40;;;;;;;0.60;0.50;;;;;;;;;;5075401;28;20212;-63
2022/09/22 11:50:28;;;;;;;0.55;0.50;;;;;;;;;;5078006;28;20208;-63
2022/09/22 11:53:02;;;;;;;0.82;0.63;;;;;;;;;;5052035;28;20410;-63
2022/09/22 11:55:32;;;;;;;0.70;0.70;;;;;;;;;;5078174;28;20228;-63
2022/09/22 11:58:00;;;;;;;0.63;0.50;;;;;;;;;;5077571;28;20208;-63
2022/09/22 12:00:33;;;;;;;1.85;0.60;;;;;;;;;;5076798;28;20212;-63
2022/09/22 12:03:00;;;;;;;1.35;0.70;;;;;;;;;;5077717;28;20386;-63
2022/09/22 12:05:29;;;;;;;0.47;0.47;;;;;;;;;;5076737;28;20224;-63
2022/09/22 12:07:58;;;;;;;0.77;0.73;;;;;;;;;;5077841;28;20211;-63
2022/09/22 12:10:30;;;;;;;1.10;0.60;;;;;;;;;;5077564;28;20226;-63
2022/09/22 12:12:56;;;;;;;0.50;0.50;;;;;;;;;;5077242;28;20216;-63
2022/09/22 12:15:27;;;;;;;3.20;0.52;;;;;;;;;;5077253;28;20235;-63
2022/09/22 12:17:58;;;;;;;0.68;0.68;;;;;;;;;;5077654;28;20204;-64
2022/09/22 12:20:33;;;;;;;0.45;0.45;;;;;;;;;;5077628;28;20296;-63
2022/09/22 12:23:13;;;;;;;2.53;0.55;;;;;;;;;;5077383;28;20208;-63
2022/09/22 12:25:43;;;;;;;0.50;0.50;;;;;;;;;;5077261;28;20203;-63
2022/09/22 12:28:14;;;;;;;0.50;0.50;;;;;;;;;;5077398;28;20419;-63
2022/09/22 12:30:51;;;;;;;0.50;0.50;;;;;;;;;;5077025;28;20204;-63
2022/09/22 12:33:18;;;;;;;0.50;0.50;;;;;;;;;;5073945;28;20204;-63
2022/09/22 12:35:56;;;;;;;0.40;0.40;;;;;;;;;;5077291;28;20610;-64
2022/09/22 12:38:23;;;;;;;0.70;0.70;;;;;;;;;;5073839;28;20531;-63
2022/09/22 12:40:51;;;;;;;0.50;0.50;;;;;;;;;;5077495;28;20211;-64
2022/09/22 12:43:19;;;;;;;0.77;0.77;;;;;;;;;;5077479;28;20380;-63
2022/09/22 12:45:46;;;;;;;1.60;0.60;;;;;;;;;;5077320;28;20559;-63
2022/09/22 12:48:15;;;;;;;0.90;0.70;;;;;;;;;;5077496;28;20208;-63
2022/09/22 12:50:43;;;;;;;1.85;0.60;;;;;;;;;;5077102;28;20237;-63
2022/09/22 12:53:11;;;;;;;0.40;0.40;;;;;;;;;;5076826;28;20253;-63
2022/09/22 12:55:40;;;;;;;0.65;0.50;;;;;;;;;;5077132;28;20223;-63
2022/09/22 12:58:25;;;;;;;2.40;0.50;;;;;;;;;;5077628;28;20208;-63
2022/09/22 13:00:52;;;;;;;0.50;0.50;;;;;;;;;;5077228;28;20214;-63
2022/09/22 13:03:37;;;;;;;1.75;0.70;;;;;;;;;;5077265;28;20215;-63
2022/09/22 13:06:25;;;;;;;0.40;0.40;;;;;;;;;;5077787;28;20231;-64
2022/09/22 13:09:15;;;;;;;0.60;0.60;;;;;;;;;;5077228;28;20207;-62
2022/09/22 13:12:00;;;;;;;0.77;0.77;;;;;;;;;;5063825;28;20215;-62
2022/09/22 13:14:45;;;;;;;0.93;0.93;;;;;;;;;;5080140;28;20208;-62
2022/09/22 13:17:26;;;;;;;0.43;0.43;;;;;;;;;;5081427;28;21061;-62
2022/09/22 13:19:55;;;;;;;0.73;0.73;;;;;;;;;;5077327;28;20208;-62
2022/09/22 13:22:22;;;;;;;0.50;0.50;;;;;;;;;;5080817;28;20555;-63
2022/09/22 13:24:49;;;;;;;0.60;0.60;;;;;;;;;;5077236;28;20507;-62
2022/09/22 13:27:15;;;;;;;0.60;0.60;;;;;;;;;;5080587;28;20215;-62
2022/09/22 13:29:56;;;;;;;1.48;0.65;;;;;;;;;;5080638;28;20212;-62
2022/09/22 13:32:27;;;;;;;0.50;0.50;;;;;;;;;;5080043;28;20208;-61
2022/09/22 13:34:53;;;;;;;1.95;0.50;;;;;;;;;;5077561;28;20551;-61
2022/09/22 13:37:22;;;;;;;0.60;0.60;;;;;;;;;;5079390;28;20494;-60
2022/09/22 13:39:51;;;;;;;0.82;0.50;;;;;;;;;;5080766;28;20246;-60
2022/09/22 13:42:21;;;;;;;1.45;0.50;;;;;;;;;;5076962;28;20216;-62
2022/09/22 13:44:49;;;;;;;0.50;0.40;;;;;;;;;;5080875;28;20243;-61
2022/09/22 13:47:16;;;;;;;0.40;0.40;;;;;;;;;;5080205;28;20281;-64
2022/09/22 13:49:46;;;;;;;0.55;0.55;;;;;;;;;;5080233;28;20207;-64
2022/09/22 13:52:14;;;;;;;0.45;0.45;;;;;;;;;;5079798;28;20207;-63
2022/09/22 13:54:41;;;;;;;0.65;0.65;;;;;;;;;;5080401;28;20209;-63
2022/09/22 13:57:18;;;;;;;0.50;0.50;;;;;;;;;;5080546;28;20246;-64
2022/09/22 13:59:45;;;;;;;2.10;0.43;;;;;;;;;;5080352;28;20211;-62
2022/09/22 14:02:12;;;;;;;0.77;0.50;;;;;;;;;;5079909;28;20212;-64
2022/09/22 14:04:48;;;;;;;0.40;0.40;;;;;;;;;;5079592;28;20207;-62
2022/09/22 14:07:14;;;;;;;0.40;0.40;;;;;;;;;;5079611;28;20211;-62
2022/09/22 14:09:40;;;;;;;2.20;0.40;;;;;;;;;;5076733;28;20247;-65
2022/09/22 14:12:10;;;;;;;0.65;0.65;;;;;;;;;;5077543;28;20219;-61
2022/09/22 14:14:38;;;;;;;1.27;0.55;;;;;;;;;;5076824;28;20269;-61
2022/09/22 14:17:05;;;;;;;0.60;0.60;;;;;;;;;;5076212;28;20212;-63
2022/09/22 14:19:33;;;;;;;0.70;0.60;;;;;;;;;;5077187;28;20212;-63
2022/09/22 14:22:01;;;;;;;0.60;0.52;;;;;;;;;;5076297;28;20209;-63
2022/09/22 14:24:28;;;;;;;1.55;0.50;;;;;;;;;;5076445;28;20290;-64
2022/09/22 14:26:55;;;;;;;0.68;0.60;;;;;;;;;;5076476;28;20285;-63
2022/09/22 14:29:24;;;;;;;0.55;0.50;;;;;;;;;;5075534;28;20226;-63
2022/09/22 14:31:59;;;;;;;0.73;0.65;;;;;;;;;;5076199;28;20218;-63
2022/09/22 14:34:26;;;;;;;0.47;0.47;;;;;;;;;;5075399;28;20281;-64
2022/09/22 14:36:53;;;;;;;0.60;0.60;;;;;;;;;;5076481;28;20574;-64
2022/09/22 14:39:23;;;;;;;0.50;0.50;;;;;;;;;;5076790;28;20219;-64
2022/09/22 14:41:50;;;;;;;0.50;0.50;;;;;;;;;;5072881;28;20218;-63
2022/09/22 14:44:34;;;;;;;0.77;0.77;;;;;;;;;;5076366;28;20491;-63
2022/09/22 14:47:06;;;;;;;0.82;0.57;;;;;;;;;;5076004;28;20601;-63
2022/09/22 14:49:36;;;;;;;0.60;0.60;;;;;;;;;;5075766;28;20208;-63
2022/09/22 14:52:03;;;;;;;0.50;0.50;;;;;;;;;;5076114;28;20216;-61
2022/09/22 14:54:30;;;;;;;0.57;0.57;;;;;;;;;;5076113;28;20277;-63
2022/09/22 14:56:57;;;;;;;1.13;0.80;;;;;;;;;;5076591;28;20232;-63
2022/09/22 15:02:32;;;;;;;0.68;0.68;;;;;;;;;;5075725;28;20248;-63
2022/09/22 15:05:02;;;;;;;1.42;0.50;;;;;;;;;;5072935;28;20228;-63
2022/09/22 15:07:29;;;;;;;0.88;0.88;;;;;;;;;;5075646;28;20219;-63
2022/09/22 15:09:57;;;;;;;0.73;0.60;;;;;;;;;;5076260;28;20211;-63
2022/09/22 15:12:38;;;;;;;1.55;0.50;;;;;;;;;;5075668;28;20355;-61
2022/09/22 15:15:13;;;;;;;1.25;0.70;;;;;;;;;;5075312;28;20253;-64
2022/09/22 15:20:27;;;;;;;0.60;0.60;;;;;;;;;;5073610;28;20210;-64